METAR Data
IDs: Format: Raw Decoded Include TAF

Data at: 0526 UTC 19 Aug 2019

KSLG 190456Z AUTO 11004KT 7SM OVC100 24/21 A2998 RMK AO2 SLP141 T02440211
KSLG 190356Z AUTO 12005KT 10SM OVC100 25/22 A2998 RMK AO2 SLP139 T02500217
KSLG 190256Z AUTO 11006KT 10SM CLR 25/22 A2997 RMK AO2 SLP136 T02500222 53021
KSLG 190156Z AUTO 10005KT 10SM CLR 26/22 A2994 RMK AO2 SLP125 T02560222
KSLG 190056Z AUTO 09003KT 10SM CLR 27/23 A2991 RMK AO2 SLP117 T02720228
KSLG 182356Z AUTO 00000KT 10SM CLR 29/23 A2990 RMK AO2 SLP113 60000 T02940228 10300 20228 55002
KSLG 182256Z AUTO 17006KT 10SM FEW100 29/23 A2990 RMK AO2 SLP111 T02940228
KSLG 182156Z AUTO VRB06KT 10SM BKN110 27/22 A2990 RMK AO2 RAB32E44 SLP112 P0000 T02720222
KSLG 182056Z AUTO 20007KT 10SM FEW020 SCT100 26/21 A2991 RMK AO2 LTG DSNT W RAB20E56 SLP116 P0000 60000 T02560211 56014
KSLG 181956Z AUTO 21009KT 10SM CLR 27/20 A2992 RMK AO2 LTG DSNT W SLP121 T02670200
KSLG 181856Z AUTO 16006KT 10SM CLR 26/20 A2993 RMK AO2 LTG DSNT E AND SE TSE00 SLP124 T02610200
KSLG 181806Z AUTO 20007KT 10SM CLR 23/20 A2995 RMK AO2 LTG DSNT E-S TSE00
KSLG 181756Z AUTO 18006KT 10SM VCTS FEW100 23/19 A2995 RMK AO2 WSHFT 1715 LTG DSNT SE AND S RAE51 SLP131 P0000 60000 T02280194 10294 20228 58009
KSLG 181735Z AUTO VRB05G18KT 10SM VCTS -RA FEW033 BKN100 23/19 A2994 RMK AO2 WSHFT 1715 LTG DSNT SE-SW P0000
KSLG 181656Z AUTO 22010KT 10SM TSRA FEW024 SCT034 BKN075 27/23 A2998 RMK AO2 LTG DSNT SW AND W TSB19RAB49 SLP141 P0000 T02670233
KSLG 181625Z AUTO 23007KT 6SM VCTS HZ BKN060 BKN100 28/24 A2999 RMK AO2 LTG DSNT W TSB19
KSLG 181556Z AUTO 20010KT 7SM SCT065 SCT080 29/23 A2998 RMK AO2 SLP140 T02890233
KSLG 181456Z AUTO 19008KT 10SM FEW024 SCT055 BKN075 28/23 A2998 RMK AO2 SLP139 T02780228 53011
KSLG 181356Z AUTO 12008KT 10SM CLR 26/22 A2994 RMK AO2 SLP125 T02610222
KSLG 181328Z AUTO 12008KT 10SM FEW023 BKN030 25/22 A2994 RMK AO2
KSLG 181256Z AUTO 08004KT 10SM OVC023 24/22 A2996 RMK AO2 SLP132 T02440217
KSLG 181156Z AUTO 01007KT 10SM BKN027 BKN070 24/22 A2995 RMK AO2 SLP127 T02440217 10267 20233 51023
KSLG 181154Z AUTO 36007KT 10SM BKN027 BKN070 24/22 A2994 RMK AO2
KSLG 181056Z AUTO 26003KT 10SM CLR 24/22 A2991 RMK AO2 SLP113 T02390217
KSLG 180956Z AUTO 16009KT 10SM CLR 26/22 A2987 RMK AO2 SLP102 T02560217
KSLG 180856Z AUTO 17008KT 10SM CLR 26/21 A2989 RMK AO2 SLP106 T02610211 55002
KSLG 180756Z AUTO 16008KT 10SM CLR 26/21 A2987 RMK AO2 SLP102 T02610211
KSLG 180656Z AUTO 17008G16KT 10SM CLR 27/21 A2988 RMK AO2 SLP103 T02670211
KSLG 180556Z AUTO 16007KT 10SM CLR 27/22 A2989 RMK AO2 SLP108 T02670217 10306 20267 403390217 50005
KSLG 180456Z AUTO 16006KT 10SM CLR 27/22 A2990 RMK AO2 SLP109 T02670217
KSLG 180356Z AUTO 16008KT 10SM CLR 27/21 A2989 RMK AO2 SLP109 T02670211
KSLG 180319Z AUTO 15008KT 10SM CLR 27/21 A2988 RMK AO2
KSLG 180309Z AUTO 15009KT 1SM HZ CLR 27/21 A2988 RMK AO2
KSLG 180256Z AUTO 15007KT 10SM CLR 27/21 A2988 RMK AO2 SLP104 T02670211 53009
KSLG 180156Z AUTO 14006KT 10SM CLR 27/22 A2986 RMK AO2 SLP097 T02670222
KSLG 180056Z AUTO 13006KT 10SM CLR 28/22 A2984 RMK AO2 SLP094 T02830222
KSLG 172356Z AUTO 15008KT 10SM CLR 31/22 A2985 RMK AO2 SLP095 T03060222 10339 20300 57012
KSLG 172256Z AUTO 16008KT 10SM CLR 32/22 A2986 RMK AO2 SLP099 T03220222
KSLG 172156Z AUTO 15012KT 10SM CLR 33/22 A2987 RMK AO2 SLP101 T03280222
KSLG 172056Z AUTO 15010KT 10SM CLR 33/22 A2989 RMK AO2 SLP106 T03280222 58019
KSLG 171956Z AUTO 16008KT 10SM CLR 33/22 A2990 RMK AO2 SLP112 T03280222
KSLG 171856Z AUTO 14008KT 10SM FEW039 32/23 A2993 RMK AO2 SLP120 T03220228
KSLG 171756Z AUTO VRB04KT 10SM CLR 30/23 A2995 RMK AO2 SLP127 T03000228 10311 20217 58020
KSLG 171729Z AUTO VRB03KT 10SM SCT031 BKN041 30/23 A2996 RMK AO2